createdAt,value
2023-01-28T00:01:32.397Z,2.25
2023-01-28T00:06:31.189Z,2.52
2023-01-28T00:11:29.935Z,2.96
2023-01-28T00:16:28.744Z,2.56
2023-01-28T00:21:27.556Z,2.55
2023-01-28T00:26:26.505Z,2.97
2023-01-28T00:31:27.477Z,3.10
2023-01-28T00:36:27.514Z,3.16
2023-01-28T00:41:28.985Z,3.13
2023-01-28T00:46:29.862Z,3.10
2023-01-28T00:51:28.588Z,2.98
2023-01-28T00:56:27.862Z,3.00
2023-01-28T01:01:28.308Z,2.84
2023-01-28T01:06:27.091Z,2.73
2023-01-28T01:11:26.243Z,2.83
2023-01-28T01:16:30.141Z,3.00
2023-01-28T01:21:30.456Z,3.00
2023-01-28T01:26:29.982Z,2.74
2023-01-28T01:31:29.675Z,2.63
2023-01-28T01:36:28.513Z,2.66
2023-01-28T01:41:30.518Z,2.83
2023-01-28T01:46:38.742Z,2.50
2023-01-28T01:51:38.793Z,2.59
2023-01-28T01:56:42.665Z,2.71
2023-01-28T02:01:42.194Z,2.76
2023-01-28T02:06:42.412Z,2.74
2023-01-28T02:11:41.268Z,2.92
2023-01-28T02:16:40.179Z,2.77
2023-01-28T02:22:09.442Z,2.83
2023-01-28T02:27:24.442Z,2.30
2023-01-28T02:32:31.456Z,3.01
2023-01-28T02:37:53.129Z,2.74
2023-01-28T02:42:54.815Z,2.89
2023-01-28T02:47:59.704Z,2.98
2023-01-28T02:53:44.064Z,2.73
2023-01-28T02:58:46.457Z,2.81
2023-01-28T03:03:59.501Z,2.72
2023-01-28T03:09:20.148Z,3.02
2023-01-28T03:14:38.501Z,2.92
2023-01-28T03:19:56.693Z,2.78
2023-01-28T03:25:15.068Z,2.89
2023-01-28T03:30:46.007Z,2.97
2023-01-28T03:36:12.248Z,3.06
2023-01-28T03:41:12.078Z,2.97
2023-01-28T03:46:12.126Z,2.59
2023-01-28T03:51:11.816Z,2.84
2023-01-28T03:56:18.727Z,2.88
2023-01-28T04:01:19.950Z,2.72
2023-01-28T04:06:18.800Z,2.88
2023-01-28T04:11:29.214Z,2.83
2023-01-28T04:16:29.637Z,2.64
2023-01-28T04:21:28.504Z,2.58
2023-01-28T04:26:28.702Z,2.61
2023-01-28T04:31:27.624Z,2.53
2023-01-28T04:36:44.929Z,2.34
2023-01-28T04:42:00.762Z,2.45
2023-01-28T04:47:16.970Z,2.42
2023-01-28T04:52:22.768Z,2.40
2023-01-28T04:57:27.540Z,2.38
2023-01-28T05:02:27.459Z,2.13
2023-01-28T05:07:26.188Z,2.24
2023-01-28T05:12:25.267Z,2.32
2023-01-28T05:17:26.997Z,10.62
2023-01-28T05:22:25.971Z,8.67
2023-01-28T05:27:50.295Z,10.83
2023-01-28T05:32:49.874Z,9.07
2023-01-28T05:37:53.490Z,5.15
2023-01-28T05:42:52.548Z,3.38
2023-01-28T05:48:12.296Z,2.53
2023-01-28T05:53:31.968Z,2.29
2023-01-28T05:58:32.210Z,1.83
2023-01-28T06:03:34.248Z,1.51
2023-01-28T06:08:33.811Z,1.58
2023-01-28T06:13:32.927Z,1.63
2023-01-28T06:18:50.254Z,1.60
2023-01-28T06:23:49.089Z,1.38
2023-01-28T06:28:48.137Z,1.08
2023-01-28T06:33:47.328Z,1.27
2023-01-28T06:38:46.819Z,1.03
2023-01-28T06:43:45.865Z,1.09
2023-01-28T06:48:45.135Z,1.10
2023-01-28T06:53:46.054Z,0.71
2023-01-28T06:58:45.095Z,1.00
2023-01-28T07:03:46.750Z,0.87
2023-01-28T07:08:45.671Z,0.66
2023-01-28T07:13:45.265Z,0.78
2023-01-28T07:18:44.323Z,0.78
2023-01-28T07:23:43.542Z,0.77
2023-01-28T07:28:42.472Z,0.40
2023-01-28T07:33:41.349Z,0.88
2023-01-28T07:38:40.328Z,0.53
2023-01-28T07:43:39.355Z,0.64
2023-01-28T07:48:48.920Z,0.77
2023-01-28T07:53:50.369Z,0.69
2023-01-28T07:58:52.559Z,0.58
2023-01-28T08:03:51.327Z,0.24
2023-01-28T08:08:50.142Z,0.19
2023-01-28T08:13:49.314Z,0.39
2023-01-28T08:18:48.057Z,0.59
2023-01-28T08:23:46.849Z,0.68
2023-01-28T08:28:45.576Z,0.67
2023-01-28T08:33:44.358Z,0.70
2023-01-28T08:38:43.589Z,0.55
2023-01-28T08:43:42.375Z,0.42
2023-01-28T08:48:41.211Z,0.36
2023-01-28T08:53:39.954Z,0.48
2023-01-28T08:58:38.723Z,0.76
2023-01-28T09:03:37.607Z,0.74
2023-01-28T09:08:36.377Z,0.86
2023-01-28T09:13:35.366Z,0.89
2023-01-28T09:18:34.159Z,0.79
2023-01-28T09:23:35.807Z,1.12
2023-01-28T09:28:34.723Z,1.07
2023-01-28T09:33:34.526Z,0.74
2023-01-28T09:38:35.122Z,0.87
2023-01-28T09:43:43.257Z,0.84
2023-01-28T09:48:46.630Z,0.54
2023-01-28T09:53:52.318Z,0.97
2023-01-28T09:58:51.272Z,1.27
2023-01-28T10:04:09.646Z,1.04
2023-01-28T10:09:14.474Z,1.29
2023-01-28T10:14:19.333Z,1.26
2023-01-28T10:19:30.305Z,0.35
2023-01-28T10:24:34.806Z,0.26
2023-01-28T10:29:39.821Z,1.08
2023-01-28T10:34:38.673Z,1.27
2023-01-28T10:39:37.791Z,1.29
2023-01-28T10:44:44.569Z,1.33
2023-01-28T10:49:50.713Z,1.42
2023-01-28T10:55:02.584Z,1.21
2023-01-28T11:00:24.495Z,1.67
2023-01-28T11:05:31.037Z,1.37
2023-01-28T11:10:32.360Z,1.50
2023-01-28T11:15:31.908Z,1.54
2023-01-28T11:20:38.646Z,1.51
2023-01-28T11:25:38.237Z,1.52
2023-01-28T11:30:40.500Z,1.53
2023-01-28T11:35:39.466Z,1.34
2023-01-28T11:40:38.406Z,1.20
2023-01-28T11:45:47.969Z,1.31
2023-01-28T11:50:55.742Z,1.06
2023-01-28T11:56:27.264Z,1.15
2023-01-28T12:01:38.279Z,1.35
2023-01-28T12:06:51.940Z,1.49
2023-01-28T12:12:18.020Z,1.46
2023-01-28T12:17:38.345Z,1.26
2023-01-28T12:22:37.117Z,1.47
2023-01-28T12:28:03.090Z,1.11
2023-01-28T12:33:17.674Z,1.37
2023-01-28T12:38:45.260Z,1.33
2023-01-28T12:43:50.260Z,1.50
2023-01-28T12:49:19.991Z,1.37
2023-01-28T12:54:31.519Z,1.49
2023-01-28T12:59:39.139Z,1.48
2023-01-28T13:04:41.854Z,1.57
2023-01-28T13:10:08.250Z,1.49
2023-01-28T13:15:13.849Z,1.69
2023-01-28T13:20:16.841Z,1.66
2023-01-28T13:25:28.072Z,1.50
2023-01-28T13:30:30.229Z,1.48
2023-01-28T13:35:31.131Z,1.58
2023-01-28T13:40:30.879Z,1.64
2023-01-28T13:45:30.381Z,1.71
2023-01-28T13:50:42.133Z,1.64
2023-01-28T13:55:45.395Z,1.62
2023-01-28T14:01:39.848Z,1.62
2023-01-28T14:07:08.744Z,1.55
2023-01-28T14:12:32.286Z,1.40
2023-01-28T14:17:49.405Z,1.30
2023-01-28T14:22:49.828Z,1.37
2023-01-28T14:27:54.227Z,1.07
2023-01-28T14:32:54.625Z,1.03
2023-01-28T14:37:54.631Z,1.35
2023-01-28T14:42:55.862Z,1.42
2023-01-28T14:48:06.902Z,1.19
2023-01-28T14:53:59.967Z,0.66
2023-01-28T14:59:43.963Z,0.56
2023-01-28T15:04:42.701Z,0.85
2023-01-28T15:09:41.652Z,0.92
2023-01-28T15:14:41.022Z,0.94
2023-01-28T15:19:40.379Z,1.14
2023-01-28T15:24:43.764Z,0.93
2023-01-28T15:29:52.288Z,0.96
2023-01-28T15:34:51.155Z,1.01
2023-01-28T15:40:00.640Z,0.56
2023-01-28T15:45:00.102Z,1.12
2023-01-28T15:50:02.824Z,0.96
2023-01-28T15:55:02.522Z,1.32
2023-01-28T16:00:07.037Z,0.65
2023-01-28T16:05:33.479Z,1.18
2023-01-28T16:10:32.641Z,1.33
2023-01-28T16:15:32.423Z,1.00
2023-01-28T16:20:32.446Z,1.15
2023-01-28T16:25:33.965Z,1.03
2023-01-28T16:30:32.744Z,1.10
2023-01-28T16:35:51.633Z,1.32
2023-01-28T16:40:50.600Z,1.17
2023-01-28T16:45:49.474Z,0.87
2023-01-28T16:50:48.478Z,1.14
2023-01-28T16:55:50.229Z,0.86
2023-01-28T17:00:49.141Z,1.15
2023-01-28T17:05:48.050Z,0.91
2023-01-28T17:10:51.866Z,0.67
2023-01-28T17:15:50.591Z,1.06
2023-01-28T17:20:49.415Z,1.39
2023-01-28T17:25:48.582Z,1.40
2023-01-28T17:30:47.387Z,1.28
2023-01-28T17:35:48.182Z,1.43
2023-01-28T17:40:47.897Z,1.44
2023-01-28T17:45:47.110Z,1.50
2023-01-28T17:50:45.887Z,1.60
2023-01-28T17:55:44.737Z,0.91
2023-01-28T18:00:43.994Z,0.54
2023-01-28T18:05:43.308Z,0.54
2023-01-28T18:10:43.564Z,-0.14
2023-01-28T18:15:42.300Z,0.11
2023-01-28T18:20:41.122Z,0.15
2023-01-28T18:25:40.611Z,0.45
2023-01-28T18:30:39.439Z,0.33
2023-01-28T18:35:43.401Z,0.59
2023-01-28T18:40:45.961Z,0.93
2023-01-28T18:45:45.802Z,0.80
2023-01-28T18:50:52.491Z,0.67
2023-01-28T18:55:51.390Z,0.26
2023-01-28T19:00:50.128Z,0.50
2023-01-28T19:05:48.987Z,0.75
2023-01-28T19:10:55.296Z,0.75
2023-01-28T19:15:54.370Z,0.94
2023-01-28T19:20:53.118Z,0.62
2023-01-28T19:25:51.912Z,1.28
2023-01-28T19:30:50.676Z,3.19
2023-01-28T19:35:58.074Z,1.02
2023-01-28T19:41:03.037Z,1.02
2023-01-28T19:46:04.963Z,0.87
2023-01-28T19:51:08.386Z,0.83
2023-01-28T19:56:10.600Z,0.74
2023-01-28T20:01:12.297Z,0.29
2023-01-28T20:06:14.910Z,0.49
2023-01-28T20:11:15.824Z,0.45
2023-01-28T20:16:19.263Z,0.90
2023-01-28T20:21:19.188Z,1.04
2023-01-28T20:26:21.178Z,0.56
2023-01-28T20:31:20.719Z,0.88
2023-01-28T20:36:19.632Z,1.29
2023-01-28T20:41:20.616Z,1.41
2023-01-28T20:46:21.749Z,1.01
2023-01-28T20:51:23.624Z,0.42
2023-01-28T20:56:23.603Z,0.61
2023-01-28T21:01:25.318Z,1.20
2023-01-28T21:06:25.375Z,1.27
2023-01-28T21:11:25.718Z,1.39
2023-01-28T21:16:25.079Z,1.05
2023-01-28T21:21:26.815Z,0.86
2023-01-28T21:26:25.916Z,1.16
2023-01-28T21:31:26.527Z,1.45
2023-01-28T21:36:26.523Z,1.29
2023-01-28T21:41:25.995Z,0.76
2023-01-28T21:46:30.206Z,1.18
2023-01-28T21:51:35.573Z,1.27
2023-01-28T21:56:34.384Z,1.51
2023-01-28T22:01:33.583Z,1.42
2023-01-28T22:06:32.581Z,1.29
2023-01-28T22:11:31.519Z,1.57
2023-01-28T22:16:30.296Z,1.31
2023-01-28T22:21:29.559Z,1.34
2023-01-28T22:26:28.291Z,1.20
2023-01-28T22:31:27.966Z,1.32
2023-01-28T22:36:26.954Z,1.25
2023-01-28T22:41:25.753Z,1.05
2023-01-28T22:46:25.380Z,1.15
2023-01-28T22:51:27.221Z,1.44
2023-01-28T22:56:27.957Z,1.24
2023-01-28T23:01:27.496Z,1.06
2023-01-28T23:06:28.214Z,1.36
2023-01-28T23:11:27.986Z,1.45
2023-01-28T23:16:47.020Z,1.69
2023-01-28T23:22:04.430Z,1.51
2023-01-28T23:27:03.710Z,1.31
2023-01-28T23:32:09.799Z,1.54
2023-01-28T23:37:10.550Z,1.23
2023-01-28T23:42:23.686Z,1.44
2023-01-28T23:47:22.591Z,1.25
2023-01-28T23:52:21.452Z,1.47
2023-01-28T23:57:20.179Z,1.15
